Time;durP1;ratioP1;P1;durP2;ratioP2;P2;SDS_P1;SDS_P2;PMS_P1;PMS_P2;Temp;Humidity;BMP_temperature;BMP_pressure;BME280_temperature;BME280_humidity;BME280_pressure;Samples;Min_cycle;Max_cycle;Signal;HPM_P1;HPM_P2
2023/06/18 00:00:26;;;;;;;7.60;3.50;;;27.50;99.90;;;;;;1873491;75;21659;-79
2023/06/18 00:02:57;;;;;;;7.00;3.33;;;27.50;99.90;;;;;;1866352;75;21135;-77
2023/06/18 00:05:31;;;;;;;7.62;3.42;;;27.50;99.90;;;;;;1876474;75;21208;-76
2023/06/18 00:08:05;;;;;;;5.85;3.12;;;27.60;99.90;;;;;;1865523;75;21131;-77
2023/06/18 00:10:37;;;;;;;6.12;3.12;;;27.60;99.90;;;;;;1878922;75;21166;-77
2023/06/18 00:13:09;;;;;;;7.50;3.75;;;27.60;99.90;;;;;;1872968;75;21141;-78
2023/06/18 00:15:43;;;;;;;6.67;3.37;;;27.60;99.90;;;;;;1872524;75;21408;-82
2023/06/18 00:18:16;;;;;;;9.28;3.15;;;27.60;99.90;;;;;;1863142;75;21183;-78
2023/06/18 00:20:48;;;;;;;7.62;3.25;;;27.60;99.90;;;;;;1876802;75;21214;-77
2023/06/18 00:23:20;;;;;;;8.18;4.40;;;27.60;99.90;;;;;;1871141;75;21196;-79
2023/06/18 00:25:53;;;;;;;10.08;7.85;;;27.60;99.90;;;;;;1877557;75;21118;-79
2023/06/18 00:28:24;;;;;;;7.03;3.45;;;27.60;99.90;;;;;;1885287;75;21163;-76
2023/06/18 00:30:56;;;;;;;8.08;3.67;;;27.70;99.90;;;;;;1863326;75;21128;-79
2023/06/18 00:33:48;;;;;;;8.58;4.25;;;27.70;99.90;;;;;;1795252;78;21083;-78
2023/06/18 00:36:20;;;;;;;15.05;5.47;;;27.70;99.90;;;;;;1846648;76;21156;-79
2023/06/18 00:38:51;;;;;;;12.43;6.20;;;27.70;99.90;;;;;;1845608;76;21158;-77
2023/06/18 00:41:24;;;;;;;11.85;5.62;;;27.70;99.90;;;;;;1847512;76;21215;-78
2023/06/18 00:43:57;;;;;;;9.98;4.97;;;27.80;99.90;;;;;;1826562;77;21163;-77
2023/06/18 00:46:35;;;;;;;9.53;4.65;;;27.80;99.90;;;;;;1788460;79;21575;-77
2023/06/18 00:49:05;;;;;;;9.40;4.20;;;27.80;99.90;;;;;;1842961;76;21144;-79
2023/06/18 00:51:36;;;;;;;9.75;3.70;;;27.80;99.90;;;;;;1849932;76;21050;-77
2023/06/18 00:54:08;;;;;;;10.32;4.60;;;27.80;99.90;;;;;;1850844;76;21177;-79
2023/06/18 00:56:39;;;;;;;12.35;4.72;;;27.80;99.90;;;;;;1840562;76;21467;-80
2023/06/18 00:59:27;;;;;;;9.38;3.50;;;27.80;99.90;;;;;;1847522;77;21193;-77
2023/06/18 01:02:23;;;;;;;12.18;4.03;;;27.90;99.90;;;;;;1856836;76;21133;-79
2023/06/18 01:05:09;;;;;;;6.72;3.55;;;27.90;99.90;;;;;;1847838;76;21610;-77
2023/06/18 01:07:57;;;;;;;7.37;3.80;;;27.90;99.90;;;;;;1879355;76;21078;-76
2023/06/18 01:10:47;;;;;;;9.55;4.30;;;27.90;99.90;;;;;;1866142;76;21637;-77
2023/06/18 01:13:41;;;;;;;11.80;3.72;;;27.90;99.90;;;;;;1854668;76;21127;-78
2023/06/18 01:16:32;;;;;;;10.18;4.53;;;27.90;99.90;;;;;;1850863;76;21067;-80
2023/06/18 01:19:47;;;;;;;8.35;4.08;;;28.00;99.90;;;;;;1851502;76;21579;-79
2023/06/18 01:23:06;;;;;;;8.35;3.60;;;28.00;99.90;;;;;;1851065;75;21083;-78
2023/06/18 01:25:43;;;;;;;12.37;4.35;;;28.00;99.90;;;;;;1866257;76;21096;-78
2023/06/18 01:28:16;;;;;;;9.80;4.10;;;28.00;99.90;;;;;;1855448;76;21151;-78
2023/06/18 01:30:47;;;;;;;16.02;4.78;;;28.10;99.90;;;;;;1861723;76;21150;-79
2023/06/18 01:33:25;;;;;;;16.45;5.95;;;28.10;99.90;;;;;;1853856;76;21189;-78
2023/06/18 01:35:56;;;;;;;18.30;5.20;;;28.10;99.90;;;;;;1855394;76;21166;-78
2023/06/18 01:38:36;;;;;;;11.35;4.50;;;28.10;99.90;;;;;;1855078;76;21145;-80
2023/06/18 01:41:20;;;;;;;11.57;4.62;;;28.10;99.90;;;;;;1799768;78;21206;-80
2023/06/18 01:43:55;;;;;;;14.78;4.67;;;28.20;99.90;;;;;;1857429;76;21107;-80
2023/06/18 01:46:29;;;;;;;37.60;5.97;;;28.20;99.90;;;;;;1855144;76;21215;-81
2023/06/18 01:49:07;;;;;;;26.70;5.50;;;28.20;99.90;;;;;;1854283;76;21178;-80
2023/06/18 01:51:51;;;;;;;20.27;5.07;;;28.30;99.90;;;;;;1850949;76;21084;-78
2023/06/18 01:54:49;;;;;;;14.40;4.58;;;28.30;99.90;;;;;;1853874;75;21669;-77
2023/06/18 01:57:37;;;;;;;12.68;4.30;;;28.30;99.90;;;;;;1857151;76;21227;-78
2023/06/18 02:00:10;;;;;;;12.40;4.45;;;28.40;99.90;;;;;;1853777;76;21088;-77
2023/06/18 02:02:50;;;;;;;20.82;5.03;;;28.40;99.90;;;;;;1856963;76;21209;-76
2023/06/18 02:05:16;;;;;;;15.53;5.35;;;28.40;99.90;;;;;;1850767;76;21115;-77
2023/06/18 02:07:51;;;;;;;10.55;4.15;;;28.50;99.90;;;;;;1850619;76;21699;-78
2023/06/18 02:10:23;;;;;;;11.03;4.30;;;28.50;99.90;;;;;;1853072;76;21167;-80
2023/06/18 02:12:59;;;;;;;11.90;4.72;;;28.50;99.90;;;;;;1855340;76;21223;-79
2023/06/18 02:15:33;;;;;;;10.55;4.30;;;28.60;99.90;;;;;;1849984;76;21217;-79
2023/06/18 02:18:11;;;;;;;7.03;3.83;;;28.60;99.90;;;;;;1854800;76;21163;-77
2023/06/18 02:20:43;;;;;;;16.55;8.63;;;28.60;99.90;;;;;;1867397;76;21068;-79
2023/06/18 02:23:22;;;;;;;15.53;6.70;;;28.60;99.90;;;;;;1858571;76;21206;-80
2023/06/18 02:25:56;;;;;;;10.72;5.08;;;28.70;99.90;;;;;;1843756;76;21135;-79
2023/06/18 02:28:46;;;;;;;9.30;5.40;;;28.70;99.90;;;;;;1847667;76;21371;-77
2023/06/18 02:31:17;;;;;;;10.55;5.37;;;28.80;99.90;;;;;;1863881;76;21157;-76
2023/06/18 02:33:49;;;;;;;10.15;5.28;;;28.80;99.90;;;;;;1858083;76;21119;-77
2023/06/18 02:36:22;;;;;;;8.75;4.92;;;28.80;99.90;;;;;;1809530;77;21143;-80
2023/06/18 02:38:55;;;;;;;10.65;4.70;;;28.80;99.90;;;;;;1805455;77;21128;-78
2023/06/18 02:41:26;;;;;;;17.95;9.80;;;28.80;99.90;;;;;;1806343;77;21137;-77
2023/06/18 02:43:58;;;;;;;12.78;6.20;;;28.90;99.90;;;;;;1764674;79;21148;-76
2023/06/18 02:46:31;;;;;;;12.78;6.30;;;28.90;99.90;;;;;;1813927;78;21066;-79
2023/06/18 02:49:02;;;;;;;13.72;5.90;;;29.00;99.90;;;;;;1840536;76;21608;-78
2023/06/18 02:51:33;;;;;;;18.50;5.40;;;29.00;99.90;;;;;;1835991;76;21542;-77
2023/06/18 02:54:05;;;;;;;19.20;5.70;;;29.00;99.90;;;;;;1841555;77;21138;-77
2023/06/18 02:56:36;;;;;;;11.65;5.17;;;29.00;99.90;;;;;;1864723;76;21577;-78
2023/06/18 02:59:07;;;;;;;17.12;5.70;;;29.00;99.90;;;;;;1855378;76;21463;-76
2023/06/18 03:01:44;;;;;;;11.18;5.00;;;29.00;99.90;;;;;;1851774;76;21147;-78
2023/06/18 03:04:15;;;;;;;8.23;5.10;;;29.00;99.90;;;;;;1855149;76;21546;-77
2023/06/18 03:06:47;;;;;;;17.45;5.22;;;29.10;99.90;;;;;;1854753;76;21137;-76
2023/06/18 03:09:18;;;;;;;16.00;5.92;;;29.10;99.90;;;;;;1854513;77;21233;-76
2023/06/18 03:11:50;;;;;;;17.52;6.30;;;29.20;99.90;;;;;;1855606;76;21110;-76
2023/06/18 03:14:23;;;;;;;29.92;7.20;;;29.30;99.90;;;;;;1846744;76;21068;-77
2023/06/18 03:16:56;;;;;;;18.25;5.95;;;29.30;99.90;;;;;;1850048;76;21072;-78
2023/06/18 03:19:28;;;;;;;18.10;6.33;;;29.30;99.90;;;;;;1862928;76;21112;-76
2023/06/18 03:22:19;;;;;;;24.32;7.30;;;29.40;99.90;;;;;;1847456;76;21146;-77
2023/06/18 03:24:54;;;;;;;21.82;5.97;;;29.40;99.90;;;;;;1856524;76;21122;-78
2023/06/18 03:27:27;;;;;;;17.57;5.67;;;29.50;99.90;;;;;;1855216;75;21129;-76
2023/06/18 03:29:58;;;;;;;24.87;7.70;;;29.60;99.90;;;;;;1870677;75;21512;-76
2023/06/18 03:32:32;;;;;;;12.35;4.78;;;29.60;99.90;;;;;;1861061;76;21211;-78
2023/06/18 03:35:04;;;;;;;12.63;4.80;;;29.60;99.90;;;;;;1862081;75;21122;-78
2023/06/18 03:37:39;;;;;;;13.50;5.60;;;29.60;99.90;;;;;;1815910;77;21163;-78
2023/06/18 03:40:12;;;;;;;9.00;4.65;;;29.70;99.90;;;;;;1860381;75;21486;-77
2023/06/18 03:42:44;;;;;;;6.92;4.40;;;29.70;99.90;;;;;;1873900;75;21102;-76
2023/06/18 03:45:19;;;;;;;10.82;4.78;;;29.70;99.90;;;;;;1840480;77;21735;-76
2023/06/18 03:47:52;;;;;;;11.10;4.47;;;29.70;99.90;;;;;;1818264;78;21158;-77
2023/06/18 03:50:24;;;;;;;7.70;4.17;;;29.70;99.90;;;;;;1859437;76;21227;-76
2023/06/18 03:52:56;;;;;;;11.53;5.03;;;29.70;99.90;;;;;;1862122;75;21098;-76
2023/06/18 03:55:29;;;;;;;10.43;4.58;;;29.80;99.90;;;;;;1824372;77;21158;-76
2023/06/18 03:58:07;;;;;;;13.43;5.25;;;29.90;99.90;;;;;;1817783;77;21201;-78
2023/06/18 04:00:38;;;;;;;11.75;4.97;;;29.90;99.90;;;;;;1864912;76;21565;-81
2023/06/18 04:03:11;;;;;;;13.78;5.67;;;30.00;99.90;;;;;;1812078;77;21747;-77
2023/06/18 04:05:49;;;;;;;7.55;4.55;;;30.00;99.90;;;;;;1910549;73;21164;-76
2023/06/18 04:08:20;;;;;;;9.08;4.53;;;30.20;99.90;;;;;;1919499;73;21052;-76
2023/06/18 04:10:55;;;;;;;9.38;5.03;;;30.30;99.90;;;;;;1916448;73;21154;-74
2023/06/18 04:13:32;;;;;;;9.88;5.42;;;30.30;99.90;;;;;;1914742;73;21263;-75
2023/06/18 04:16:01;;;;;;;11.03;4.78;;;30.30;99.90;;;;;;1933460;73;21132;-77
2023/06/18 04:18:37;;;;;;;9.28;4.70;;;30.30;99.90;;;;;;1929013;74;21119;-77
2023/06/18 04:21:16;;;;;;;10.63;4.80;;;30.30;99.90;;;;;;1919287;73;21185;-75
2023/06/18 04:23:48;;;;;;;8.80;5.08;;;30.30;99.90;;;;;;1888763;74;21111;-81
2023/06/18 04:26:20;;;;;;;9.48;4.40;;;30.30;99.90;;;;;;1836863;77;21096;-80
2023/06/18 04:28:53;;;;;;;8.95;4.80;;;30.30;99.90;;;;;;1924573;73;21173;-80
2023/06/18 04:31:26;;;;;;;10.60;4.90;;;30.30;99.90;;;;;;1912529;73;21150;-78
2023/06/18 04:33:57;;;;;;;9.43;4.75;;;30.30;99.90;;;;;;1914064;73;21148;-80
2023/06/18 04:36:33;;;;;;;10.50;4.72;;;30.30;99.90;;;;;;1921963;73;21176;-79
2023/06/18 04:39:05;;;;;;;8.75;4.35;;;30.20;99.90;;;;;;1920916;73;21904;-81
2023/06/18 04:41:36;;;;;;;17.92;5.75;;;30.20;99.90;;;;;;1888122;74;21184;-82
2023/06/18 04:44:12;;;;;;;10.38;4.83;;;30.20;99.90;;;;;;1918212;73;21155;-81
2023/06/18 04:46:43;;;;;;;7.80;3.80;;;30.10;99.90;;;;;;1923533;73;21170;-81
2023/06/18 04:49:17;;;;;;;10.72;4.65;;;30.10;99.90;;;;;;1920119;73;21042;-78
2023/06/18 04:51:49;;;;;;;10.68;4.62;;;30.10;99.90;;;;;;1922967;73;21109;-78
2023/06/18 04:54:20;;;;;;;13.80;5.15;;;30.10;99.90;;;;;;1920745;73;21573;-78
2023/06/18 04:56:52;;;;;;;14.78;6.03;;;30.10;99.90;;;;;;1912164;73;21125;-77
2023/06/18 04:59:24;;;;;;;9.60;5.15;;;30.00;99.90;;;;;;1921382;73;21210;-81
2023/06/18 05:01:55;;;;;;;14.50;6.28;;;30.00;99.90;;;;;;1920108;73;21119;-80
2023/06/18 05:04:28;;;;;;;12.05;5.53;;;30.00;99.90;;;;;;1923953;73;21214;-78
2023/06/18 05:07:00;;;;;;;13.98;5.12;;;30.00;99.90;;;;;;1917550;73;21115;-81
2023/06/18 05:09:31;;;;;;;6.60;4.60;;;30.00;99.90;;;;;;1896636;75;21135;-80
2023/06/18 05:12:08;;;;;;;8.13;4.37;;;30.00;99.90;;;;;;1925492;73;21196;-78
2023/06/18 05:14:43;;;;;;;9.63;4.80;;;30.00;99.90;;;;;;1929119;73;21098;-81
2023/06/18 05:17:14;;;;;;;9.78;4.85;;;30.00;99.90;;;;;;1934267;73;21559;-80
2023/06/18 05:19:46;;;;;;;11.57;5.60;;;30.00;99.90;;;;;;1880108;75;21080;-78
2023/06/18 05:22:18;;;;;;;8.38;4.47;;;30.10;99.90;;;;;;1914136;73;21146;-81
2023/06/18 05:24:50;;;;;;;10.32;5.15;;;30.10;99.90;;;;;;1920922;73;21136;-79
2023/06/18 05:27:22;;;;;;;13.93;5.97;;;30.10;99.90;;;;;;1928086;73;21228;-78
2023/06/18 05:29:54;;;;;;;8.28;5.20;;;30.10;99.90;;;;;;1918434;73;21197;-81
2023/06/18 05:32:26;;;;;;;8.68;4.87;;;30.10;99.90;;;;;;1929258;73;21077;-80
2023/06/18 05:35:00;;;;;;;9.90;4.92;;;30.10;99.90;;;;;;1916990;74;21467;-80
2023/06/18 05:37:32;;;;;;;9.70;4.72;;;30.10;99.90;;;;;;1919282;73;21020;-76
2023/06/18 05:40:10;;;;;;;9.10;4.87;;;30.10;99.90;;;;;;1915096;73;21089;-76
2023/06/18 05:42:43;;;;;;;10.23;5.15;;;30.10;99.90;;;;;;1923246;73;21173;-76
2023/06/18 05:45:19;;;;;;;8.68;4.28;;;30.10;99.90;;;;;;1880339;74;21107;-79
2023/06/18 05:47:56;;;;;;;9.03;4.40;;;30.10;99.90;;;;;;1888570;75;21149;-79
2023/06/18 05:50:34;;;;;;;13.40;4.90;;;30.10;99.90;;;;;;1887168;74;21194;-79
2023/06/18 05:53:05;;;;;;;14.87;5.03;;;30.10;99.90;;;;;;1891261;75;21228;-81
2023/06/18 05:55:36;;;;;;;10.90;4.95;;;30.20;99.90;;;;;;1894747;75;21061;-79
2023/06/18 05:58:08;;;;;;;9.28;4.85;;;30.20;99.90;;;;;;1896502;75;21159;-80
2023/06/18 06:00:39;;;;;;;6.85;4.40;;;30.10;99.90;;;;;;1879027;74;21165;-77
2023/06/18 06:03:15;;;;;;;9.05;4.62;;;30.10;99.90;;;;;;1900426;74;21179;-80
2023/06/18 06:05:47;;;;;;;7.25;4.97;;;30.10;99.90;;;;;;1912341;73;21624;-78
2023/06/18 06:08:19;;;;;;;18.80;5.90;;;30.10;99.90;;;;;;1922495;73;21103;-80
2023/06/18 06:10:51;;;;;;;10.95;5.62;;;30.10;99.90;;;;;;1919614;73;21175;-79
2023/06/18 06:13:24;;;;;;;11.20;5.30;;;30.20;99.90;;;;;;1924247;73;21046;-79
2023/06/18 06:15:56;;;;;;;11.43;5.58;;;30.20;99.90;;;;;;1873570;75;21109;-79
2023/06/18 06:18:28;;;;;;;11.60;5.00;;;30.20;99.90;;;;;;1892173;74;21209;-79
2023/06/18 06:21:01;;;;;;;17.30;5.58;;;30.30;99.90;;;;;;1923610;73;21035;-79
2023/06/18 06:23:53;;;;;;;12.07;4.80;;;30.30;99.90;;;;;;1926635;73;21059;-80
2023/06/18 06:26:25;;;;;;;14.47;5.35;;;30.30;99.90;;;;;;1925839;73;21536;-81
2023/06/18 06:28:56;;;;;;;9.70;4.83;;;30.30;99.90;;;;;;1920187;73;21100;-80
2023/06/18 06:31:27;;;;;;;10.65;4.65;;;30.30;99.90;;;;;;1916519;73;21123;-79
2023/06/18 06:34:00;;;;;;;8.90;5.05;;;30.30;99.90;;;;;;1893082;74;21120;-81
2023/06/18 06:36:31;;;;;;;10.38;5.10;;;30.30;99.90;;;;;;1922286;73;21120;-79
2023/06/18 06:39:03;;;;;;;9.48;4.80;;;30.30;99.90;;;;;;1922139;73;21127;-80
2023/06/18 06:41:36;;;;;;;13.18;5.83;;;30.40;99.90;;;;;;1905236;73;21096;-80
2023/06/18 06:44:08;;;;;;;9.93;4.67;;;30.40;99.90;;;;;;1928673;73;21364;-78
2023/06/18 06:46:40;;;;;;;7.47;4.45;;;30.40;99.90;;;;;;1891715;73;21142;-77
2023/06/18 06:49:14;;;;;;;8.63;5.10;;;30.40;99.90;;;;;;1901487;74;21076;-77
2023/06/18 06:51:45;;;;;;;8.98;4.47;;;30.40;99.90;;;;;;1900955;75;21209;-79
2023/06/18 06:54:20;;;;;;;8.35;4.85;;;30.40;99.90;;;;;;1866141;74;21126;-82
2023/06/18 06:56:56;;;;;;;10.15;4.87;;;30.50;99.90;;;;;;1895855;75;21104;-80
2023/06/18 06:59:28;;;;;;;9.73;4.78;;;30.50;99.90;;;;;;1909159;74;21179;-79
2023/06/18 07:02:00;;;;;;;8.50;4.95;;;30.60;99.90;;;;;;1901091;74;21405;-77
2023/06/18 07:04:35;;;;;;;8.80;5.83;;;30.60;99.90;;;;;;1904580;73;21112;-80
2023/06/18 07:07:06;;;;;;;9.45;4.97;;;30.60;99.90;;;;;;1896223;74;21126;-78
2023/06/18 07:09:39;;;;;;;7.90;4.83;;;30.60;99.90;;;;;;1880734;74;21092;-78
2023/06/18 07:12:11;;;;;;;10.63;4.87;;;30.60;99.90;;;;;;1830840;77;21120;-77
2023/06/18 07:14:44;;;;;;;9.85;4.72;;;30.60;99.90;;;;;;1896841;73;21187;-77
2023/06/18 07:17:17;;;;;;;9.13;4.47;;;30.70;99.90;;;;;;1918725;73;21036;-76
2023/06/18 07:19:52;;;;;;;8.53;5.22;;;30.70;99.90;;;;;;1908617;73;21143;-74
2023/06/18 07:22:24;;;;;;;9.78;4.85;;;30.70;99.90;;;;;;1922674;73;21150;-75
2023/06/18 07:24:58;;;;;;;7.37;4.55;;;30.70;99.90;;;;;;1927940;73;21143;-73
2023/06/18 07:27:31;;;;;;;8.65;4.47;;;30.80;99.90;;;;;;1917273;73;21127;-76
2023/06/18 07:30:03;;;;;;;18.95;6.03;;;30.80;99.90;;;;;;1879627;74;21132;-74
2023/06/18 07:32:34;;;;;;;13.43;5.17;;;30.80;99.90;;;;;;1915595;73;21167;-73
2023/06/18 07:35:08;;;;;;;11.45;5.00;;;30.80;99.90;;;;;;1912189;73;21024;-73
2023/06/18 07:37:39;;;;;;;6.90;3.98;;;30.80;99.70;;;;;;1897543;73;21616;-74
2023/06/18 07:40:11;;;;;;;7.10;4.70;;;30.80;99.60;;;;;;1873402;75;21526;-72
2023/06/18 07:42:42;;;;;;;9.25;4.83;;;30.80;99.50;;;;;;1893717;74;21743;-73
2023/06/18 07:45:14;;;;;;;9.70;4.58;;;30.80;99.90;;;;;;1893845;74;21149;-77
2023/06/18 07:47:47;;;;;;;9.23;4.60;;;30.80;99.90;;;;;;1898490;74;21107;-77
2023/06/18 07:50:19;;;;;;;6.65;4.45;;;30.90;99.90;;;;;;1880248;74;21168;-77
2023/06/18 07:52:52;;;;;;;6.22;5.15;;;30.90;99.90;;;;;;1915169;73;21463;-81
2023/06/18 07:55:24;;;;;;;8.73;4.97;;;30.90;99.90;;;;;;1913815;73;21529;-75
2023/06/18 07:57:58;;;;;;;8.10;4.83;;;30.90;99.70;;;;;;1880785;75;21169;-74
2023/06/18 08:00:30;;;;;;;11.53;5.03;;;30.90;99.80;;;;;;1910366;73;21132;-74
2023/06/18 08:03:02;;;;;;;7.37;4.83;;;30.90;99.90;;;;;;1928980;72;21123;-74
2023/06/18 08:05:34;;;;;;;10.35;5.22;;;30.90;99.90;;;;;;1915598;73;21447;-74
2023/06/18 08:08:06;;;;;;;7.45;4.67;;;30.80;99.90;;;;;;1920033;73;21532;-74
2023/06/18 08:10:38;;;;;;;12.50;5.15;;;30.80;99.90;;;;;;1923744;73;21060;-74
2023/06/18 08:13:10;;;;;;;7.67;5.10;;;30.70;99.90;;;;;;1923177;73;21608;-76
2023/06/18 08:15:41;;;;;;;8.75;5.33;;;30.60;99.90;;;;;;1898065;75;21519;-76
2023/06/18 08:18:13;;;;;;;9.03;5.30;;;30.60;99.90;;;;;;1907063;74;21122;-75
2023/06/18 08:20:45;;;;;;;10.40;6.40;;;30.50;99.90;;;;;;1909950;75;21087;-74
2023/06/18 08:23:22;;;;;;;8.17;6.00;;;30.40;99.90;;;;;;1930037;73;21127;-75
2023/06/18 08:25:59;;;;;;;9.28;5.92;;;30.50;99.90;;;;;;1916594;73;21104;-76
2023/06/18 08:28:33;;;;;;;7.08;5.87;;;30.40;99.90;;;;;;1865409;74;21156;-76
2023/06/18 08:31:06;;;;;;;8.60;5.53;;;30.40;99.90;;;;;;1882467;74;21045;-76
2023/06/18 08:33:37;;;;;;;9.63;5.75;;;30.40;99.90;;;;;;1893376;75;21109;-76
2023/06/18 08:36:11;;;;;;;10.03;5.60;;;30.40;99.90;;;;;;1898411;75;21088;-77
2023/06/18 08:38:43;;;;;;;9.20;5.83;;;30.40;99.90;;;;;;1887927;75;21122;-76
2023/06/18 08:41:15;;;;;;;8.08;5.45;;;30.40;99.90;;;;;;1902775;75;21044;-76
2023/06/18 08:43:48;;;;;;;11.18;5.97;;;30.40;99.90;;;;;;1879704;74;21776;-75
2023/06/18 08:46:21;;;;;;;10.25;6.03;;;30.40;99.90;;;;;;1795125;79;21180;-76
2023/06/18 08:48:55;;;;;;;10.05;5.25;;;30.40;99.90;;;;;;1817894;79;21165;-76
2023/06/18 08:51:29;;;;;;;8.63;5.42;;;30.40;99.90;;;;;;1855397;77;21201;-74
2023/06/18 08:54:05;;;;;;;8.80;5.10;;;30.40;99.90;;;;;;1870749;74;21099;-74
2023/06/18 08:56:39;;;;;;;7.92;5.10;;;30.30;99.90;;;;;;1839012;77;21892;-76
2023/06/18 08:59:12;;;;;;;7.80;4.80;;;30.30;99.90;;;;;;1867161;75;21162;-75
2023/06/18 09:01:52;;;;;;;7.65;4.75;;;30.30;99.90;;;;;;1889047;74;21131;-76
2023/06/18 09:04:25;;;;;;;10.68;4.83;;;30.20;99.90;;;;;;1869793;75;21119;-75
2023/06/18 09:06:56;;;;;;;9.18;4.97;;;30.10;99.90;;;;;;1924940;72;21141;-75
2023/06/18 09:09:31;;;;;;;13.90;4.95;;;30.10;99.90;;;;;;1946801;72;21036;-75
2023/06/18 09:12:03;;;;;;;10.13;5.00;;;30.00;99.90;;;;;;1938177;73;21127;-74
2023/06/18 09:14:34;;;;;;;11.33;5.37;;;30.00;99.90;;;;;;1874899;74;21596;-76
2023/06/18 09:17:06;;;;;;;9.00;4.25;;;30.00;99.90;;;;;;1915106;73;21135;-75
2023/06/18 09:19:38;;;;;;;12.43;4.40;;;30.00;99.90;;;;;;1922373;73;21232;-75
2023/06/18 09:22:20;;;;;;;10.82;4.75;;;29.90;99.90;;;;;;1879910;75;21056;-77
2023/06/18 09:24:59;;;;;;;9.40;4.35;;;29.90;99.90;;;;;;1885376;74;21139;-74
2023/06/18 09:27:36;;;;;;;9.15;4.35;;;29.90;99.90;;;;;;1880870;74;21138;-75
2023/06/18 09:30:12;;;;;;;6.90;4.42;;;29.90;99.90;;;;;;1932396;73;21170;-74
2023/06/18 09:32:53;;;;;;;7.12;4.28;;;29.80;99.90;;;;;;1899848;73;21164;-74
2023/06/18 09:35:24;;;;;;;11.03;4.92;;;29.80;99.90;;;;;;1917388;73;21195;-75
2023/06/18 09:37:55;;;;;;;12.25;4.70;;;29.80;99.90;;;;;;1935764;73;21145;-77
2023/06/18 09:40:26;;;;;;;6.62;4.25;;;29.70;99.90;;;;;;1925517;73;21127;-75
2023/06/18 09:43:00;;;;;;;8.70;4.28;;;29.70;99.90;;;;;;1931608;73;21060;-75
2023/06/18 09:45:32;;;;;;;7.15;3.90;;;29.70;99.90;;;;;;1983765;71;21214;-77
2023/06/18 09:48:04;;;;;;;11.25;4.50;;;29.70;99.90;;;;;;1971448;72;21122;-76
2023/06/18 09:50:35;;;;;;;8.20;4.47;;;29.70;99.90;;;;;;1970655;71;21193;-76
2023/06/18 09:53:27;;;;;;;8.03;4.50;;;29.70;99.90;;;;;;1908601;73;21115;-77
2023/06/18 09:56:12;;;;;;;5.95;4.22;;;29.60;99.90;;;;;;1863792;75;21158;-76
2023/06/18 09:58:45;;;;;;;6.35;3.90;;;29.60;99.90;;;;;;1911530;74;21470;-75
2023/06/18 10:01:20;;;;;;;8.75;3.98;;;29.60;99.90;;;;;;1896426;74;21119;-75
2023/06/18 10:03:52;;;;;;;;;;;29.60;99.90;;;;;;1906386;74;21166;-75
2023/06/18 10:06:24;;;;;;;10.00;4.22;;;29.60;99.90;;;;;;1888222;75;20660;-76
2023/06/18 10:08:58;;;;;;;8.10;3.90;;;29.50;99.90;;;;;;1902343;73;21116;-76
2023/06/18 10:11:31;;;;;;;12.68;4.30;;;29.50;99.90;;;;;;1883418;74;21142;-75
2023/06/18 10:14:05;;;;;;;7.42;3.75;;;29.50;99.90;;;;;;1880793;74;21196;-75
2023/06/18 10:16:36;;;;;;;7.87;3.95;;;29.50;99.90;;;;;;1851369;76;21166;-75
2023/06/18 10:19:29;;;;;;;11.57;3.17;;;29.50;99.90;;;;;;1886652;74;21134;-74
2023/06/18 10:22:04;;;;;;;5.42;3.47;;;29.40;99.90;;;;;;1823803;76;21140;-76
2023/06/18 10:24:59;;;;;;;6.78;3.20;;;29.40;99.90;;;;;;1853557;76;21056;-74
2023/06/18 10:27:31;;;;;;;8.03;3.50;;;29.30;99.90;;;;;;1885517;74;21146;-74
2023/06/18 10:30:03;;;;;;;7.33;3.30;;;29.30;99.90;;;;;;1900775;74;21064;-74
2023/06/18 10:32:36;;;;;;;8.40;4.15;;;29.30;99.90;;;;;;1897267;74;21136;-77
2023/06/18 10:35:11;;;;;;;7.15;3.50;;;29.30;99.90;;;;;;1912084;73;21550;-75
2023/06/18 10:37:44;;;;;;;7.30;3.80;;;29.30;99.90;;;;;;1890393;74;21113;-76
2023/06/18 10:40:16;;;;;;;15.95;4.87;;;29.30;99.90;;;;;;1900376;74;21184;-77
2023/06/18 10:42:51;;;;;;;8.30;3.55;;;29.30;99.90;;;;;;1892024;74;21178;-74
2023/06/18 10:45:22;;;;;;;8.33;3.55;;;29.30;99.90;;;;;;1890378;74;21107;-76
2023/06/18 10:47:56;;;;;;;8.10;4.12;;;29.20;99.90;;;;;;1884126;74;21889;-78
2023/06/18 10:50:27;;;;;;;9.45;3.67;;;29.20;99.90;;;;;;1891160;73;21122;-74
2023/06/18 10:53:01;;;;;;;5.75;3.42;;;29.20;99.90;;;;;;1881522;74;21659;-77
2023/06/18 10:55:35;;;;;;;7.80;4.12;;;29.10;99.90;;;;;;1854859;75;21122;-77
2023/06/18 10:58:06;;;;;;;11.20;5.08;;;29.10;99.90;;;;;;1881071;74;22000;-76
2023/06/18 11:00:42;;;;;;;8.03;4.10;;;29.10;99.90;;;;;;1902511;74;21538;-76
2023/06/18 11:03:18;;;;;;;5.53;3.17;;;29.00;99.90;;;;;;1883539;74;21178;-77
2023/06/18 11:05:54;;;;;;;7.60;3.58;;;29.10;99.90;;;;;;1849156;76;21155;-77
2023/06/18 11:08:33;;;;;;;9.65;4.15;;;29.00;99.90;;;;;;1854721;75;21688;-75
2023/06/18 11:11:06;;;;;;;11.90;4.15;;;29.00;99.90;;;;;;1882276;75;21651;-77
2023/06/18 11:13:39;;;;;;;6.85;3.90;;;29.00;99.90;;;;;;1865342;75;21130;-77
2023/06/18 11:16:14;;;;;;;5.47;3.60;;;28.90;99.90;;;;;;1893572;75;21110;-78
2023/06/18 11:18:45;;;;;;;8.68;4.62;;;28.90;99.90;;;;;;1893827;74;21483;-76
2023/06/18 11:21:18;;;;;;;9.08;4.33;;;28.90;99.90;;;;;;1873570;75;21066;-76
2023/06/18 11:23:50;;;;;;;10.63;4.55;;;28.90;99.90;;;;;;1832013;76;21230;-76
2023/06/18 11:26:23;;;;;;;7.37;4.00;;;28.90;99.90;;;;;;1893282;74;21067;-75
2023/06/18 11:28:56;;;;;;;7.92;4.17;;;28.80;99.90;;;;;;1885695;75;21127;-76
2023/06/18 11:31:34;;;;;;;8.53;4.10;;;28.80;99.90;;;;;;1874218;75;21064;-77
2023/06/18 11:34:08;;;;;;;7.22;3.70;;;28.80;99.90;;;;;;1850187;76;21075;-75
2023/06/18 11:36:42;;;;;;;6.22;4.10;;;28.80;99.90;;;;;;1905798;73;21154;-75
2023/06/18 11:39:15;;;;;;;8.05;4.03;;;28.80;99.90;;;;;;1895676;74;21139;-76
2023/06/18 11:41:48;;;;;;;9.85;4.10;;;28.90;99.90;;;;;;1891499;74;21073;-77
2023/06/18 11:44:25;;;;;;;10.98;3.75;;;28.80;99.90;;;;;;1901920;73;21167;-76
2023/06/18 11:47:00;;;;;;;9.88;3.00;;;28.80;99.90;;;;;;1900898;73;21065;-76
2023/06/18 11:49:31;;;;;;;5.22;2.65;;;28.80;99.90;;;;;;1879097;75;21199;-75
2023/06/18 11:52:03;;;;;;;5.00;2.77;;;28.80;99.90;;;;;;1892623;74;21135;-77
2023/06/18 11:54:37;;;;;;;5.35;2.15;;;28.80;99.90;;;;;;1910308;75;21154;-77
2023/06/18 11:57:13;;;;;;;7.00;2.30;;;28.70;99.90;;;;;;1878856;74;21077;-74
2023/06/18 11:59:45;;;;;;;4.62;2.20;;;28.70;99.90;;;;;;1887823;74;21222;-76
2023/06/18 12:02:21;;;;;;;5.12;2.20;;;28.70;99.90;;;;;;1882904;74;21671;-75
2023/06/18 12:04:52;;;;;;;;;;;28.70;99.90;;;;;;1880479;74;21158;-75
2023/06/18 12:07:24;;;;;;;6.75;2.87;;;28.70;99.90;;;;;;1880917;74;20133;-77
2023/06/18 12:09:58;;;;;;;5.12;2.80;;;28.70;99.90;;;;;;1874109;75;21092;-77
2023/06/18 12:12:34;;;;;;;4.78;3.00;;;28.70;99.90;;;;;;1896274;74;21562;-75
2023/06/18 12:15:25;;;;;;;5.08;2.77;;;28.70;99.90;;;;;;1871778;74;21072;-76
2023/06/18 12:18:05;;;;;;;5.42;3.00;;;28.60;99.90;;;;;;1907565;75;21161;-73
2023/06/18 12:20:40;;;;;;;7.40;3.25;;;28.60;99.90;;;;;;1910032;73;21117;-75
2023/06/18 12:23:13;;;;;;;6.65;3.05;;;28.60;99.90;;;;;;1917175;74;21122;-76
2023/06/18 12:25:45;;;;;;;3.80;2.17;;;28.60;99.90;;;;;;1893020;74;21568;-77
2023/06/18 12:28:17;;;;;;;5.45;2.45;;;28.60;99.90;;;;;;1916875;73;21133;-76
2023/06/18 12:30:51;;;;;;;4.90;2.80;;;28.50;99.90;;;;;;1912572;73;21158;-76
2023/06/18 12:33:24;;;;;;;5.65;2.45;;;28.50;99.90;;;;;;1888172;74;21056;-75
2023/06/18 12:35:58;;;;;;;6.30;3.12;;;28.50;99.90;;;;;;1880562;74;21161;-73
2023/06/18 12:38:30;;;;;;;4.80;2.98;;;28.50;99.90;;;;;;1879574;75;21155;-76
2023/06/18 12:41:04;;;;;;;5.40;3.20;;;28.50;99.90;;;;;;1848752;76;21181;-76
2023/06/18 12:43:40;;;;;;;5.65;2.87;;;28.50;99.90;;;;;;1873763;76;21123;-76
2023/06/18 12:46:11;;;;;;;4.67;3.08;;;28.50;99.90;;;;;;1857582;76;21173;-77
2023/06/18 12:48:45;;;;;;;6.78;3.62;;;28.50;99.90;;;;;;1873349;75;21133;-76
2023/06/18 12:51:15;;;;;;;6.28;3.92;;;28.40;99.90;;;;;;1878856;75;21056;-75
2023/06/18 12:53:46;;;;;;;7.58;4.20;;;28.40;99.90;;;;;;1912170;74;21067;-75
2023/06/18 12:59:12;;;;;;;6.80;4.05;;;28.40;99.90;;;;;;1913193;75;21059;-75
2023/06/18 13:01:51;;;;;;;8.08;3.85;;;28.40;99.90;;;;;;1911597;73;21149;-74
2023/06/18 13:04:21;;;;;;;7.22;2.70;;;28.30;99.90;;;;;;1890853;73;21117;-73
2023/06/18 13:06:58;;;;;;;4.58;2.55;;;28.30;99.90;;;;;;1891891;73;21075;-72
2023/06/18 13:09:28;;;;;;;2.92;2.15;;;28.20;99.90;;;;;;1899402;75;21935;-74
2023/06/18 13:12:01;;;;;;;3.70;2.15;;;28.30;99.90;;;;;;1903827;75;21143;-74
2023/06/18 13:14:32;;;;;;;5.08;2.20;;;28.20;99.90;;;;;;1904935;75;21189;-76
2023/06/18 13:17:05;;;;;;;4.15;2.30;;;28.20;99.90;;;;;;1907732;75;21129;-76
2023/06/18 13:19:39;;;;;;;4.42;2.22;;;28.10;99.90;;;;;;1903758;74;21070;-76
2023/06/18 13:22:12;;;;;;;7.42;2.90;;;28.10;99.90;;;;;;1904723;74;21185;-75